Time,TemperatureF,DewpointF,PressureIn,WindDirection,WindDirectionDegrees,WindSpeedMPH,WindSpeedGustMPH,Humidity,HourlyPrecipIn,Conditions,Clouds,dailyrainin,SolarRadiationWatts/m^2,SoftwareType,DateUTC
2015-08-29 00:03:00,68.0,64.9,29.80,WNW,302,3.6,4.9,90,0.00,,,0.00,0.00,Weather logger V3.0.,2015-08-29 07:03:00,
2015-08-29 00:08:00,68.0,64.9,29.80,WSW,241,3.4,4.9,90,0.00,,,0.00,0.00,Weather logger V3.0.,2015-08-29 07:08:00,
2015-08-29 00:13:00,68.0,64.8,29.80,West,271,1.3,2.5,89,0.00,,,0.00,0.00,Weather logger V3.0.,2015-08-29 07:13:00,
2015-08-29 00:18:00,68.0,64.8,29.80,WNW,301,0.4,2.5,89,0.00,,,0.00,0.00,Weather logger V3.0.,2015-08-29 07:18:00,
2015-08-29 00:23:00,68.0,64.9,29.80,WSW,250,2.5,2.5,90,0.00,,,0.00,0.00,Weather logger V3.0.,2015-08-29 07:23:00,
2015-08-29 00:28:00,68.0,64.9,29.81,North,358,1.8,2.5,90,0.00,,,0.00,0.00,Weather logger V3.0.,2015-08-29 07:28:00,
2015-08-29 00:33:00,68.0,64.8,29.81,NW,308,1.1,2.5,89,0.00,,,0.00,0.00,Weather logger V3.0.,2015-08-29 07:33:00,
2015-08-29 00:38:00,67.8,64.8,29.80,WNW,290,5.1,7.4,90,0.00,,,0.00,0.00,Weather logger V3.0.,2015-08-29 07:38:00,
2015-08-29 00:40:00,67.8,64.8,29.81,WNW,296,0.2,2.5,90,0.00,,,0.00,0.00,Weather logger V3.0.,2015-08-29 07:40:00,
2015-08-29 00:45:00,67.8,65.1,29.81,WNW,283,2.0,4.9,91,0.00,,,0.00,0.00,Weather logger V3.0.,2015-08-29 07:45:00,
2015-08-29 00:50:00,67.6,64.9,29.81,WNW,289,1.1,2.5,91,0.00,,,0.00,0.00,Weather logger V3.0.,2015-08-29 07:50:00,
2015-08-29 00:55:00,67.6,64.9,29.81,WNW,302,0.2,2.5,91,0.00,,,0.00,0.00,Weather logger V3.0.,2015-08-29 07:55:00,
2015-08-29 01:00:00,67.5,64.8,29.81,West,279,0.2,2.5,91,0.00,,,0.00,0.00,Weather logger V3.0.,2015-08-29 08:00:00,
2015-08-29 01:05:00,67.3,64.6,29.82,West,261,0.0,0.0,91,0.00,,,0.00,0.00,Weather logger V3.0.,2015-08-29 08:05:00,
2015-08-29 01:10:00,67.3,64.6,29.82,WNW,294,0.4,2.5,91,0.00,,,0.00,0.00,Weather logger V3.0.,2015-08-29 08:10:00,
2015-08-29 01:15:00,67.3,64.6,29.82,WSW,257,1.8,2.5,91,0.00,,,0.00,0.00,Weather logger V3.0.,2015-08-29 08:15:00,
2015-08-29 01:20:00,67.3,64.6,29.82,NNW,338,0.2,2.5,91,0.00,,,0.00,0.00,Weather logger V3.0.,2015-08-29 08:20:00,
2015-08-29 01:26:00,67.3,64.6,29.82,WNW,298,1.3,2.5,91,0.00,,,0.00,0.00,Weather logger V3.0.,2015-08-29 08:26:00,
2015-08-29 01:31:00,67.3,64.6,29.81,WNW,299,1.1,2.5,91,0.00,,,0.00,0.00,Weather logger V3.0.,2015-08-29 08:31:00,
2015-08-29 01:36:00,67.3,64.6,29.81,NW,310,0.4,2.5,91,0.00,,,0.00,0.00,Weather logger V3.0.,2015-08-29 08:36:00,
2015-08-29 01:41:00,67.3,64.6,29.81,WNW,298,1.3,2.5,91,0.00,,,0.00,0.00,Weather logger V3.0.,2015-08-29 08:41:00,
2015-08-29 01:46:00,67.3,64.6,29.81,NNW,329,0.0,0.0,91,0.00,,,0.00,0.00,Weather logger V3.0.,2015-08-29 08:46:00,
2015-08-29 01:51:00,67.3,64.6,29.81,NNE,14,0.0,0.0,91,0.00,,,0.00,0.00,Weather logger V3.0.,2015-08-29 08:51:00,
2015-08-29 01:56:00,67.3,64.6,29.81,WNW,290,0.2,2.5,91,0.00,,,0.00,0.00,Weather logger V3.0.,2015-08-29 08:56:00,
2015-08-29 02:01:00,67.3,64.6,29.81,NW,312,0.0,0.0,91,0.00,,,0.00,0.00,Weather logger V3.0.,2015-08-29 09:01:00,
2015-08-29 02:06:00,67.3,64.6,29.82,WNW,303,0.2,2.5,91,0.00,,,0.00,0.00,Weather logger V3.0.,2015-08-29 09:06:00,
2015-08-29 02:11:00,67.3,64.6,29.82,West,266,0.0,0.0,91,0.00,,,0.00,0.00,Weather logger V3.0.,2015-08-29 09:11:00,
2015-08-29 02:16:00,67.3,64.6,29.82,West,277,1.3,2.5,91,0.00,,,0.00,0.00,Weather logger V3.0.,2015-08-29 09:16:00,
2015-08-29 02:21:00,67.3,64.6,29.82,North,355,0.0,0.0,91,0.00,,,0.00,0.00,Weather logger V3.0.,2015-08-29 09:21:00,
2015-08-29 02:26:00,67.3,64.6,29.81,NNW,339,0.2,2.5,91,0.00,,,0.00,0.00,Weather logger V3.0.,2015-08-29 09:26:00,
2015-08-29 02:31:00,67.3,64.6,29.82,West,276,0.9,2.5,91,0.00,,,0.00,0.00,Weather logger V3.0.,2015-08-29 09:31:00,
2015-08-29 02:36:00,67.3,64.6,29.82,West,281,0.9,2.5,91,0.00,,,0.00,0.00,Weather logger V3.0.,2015-08-29 09:36:00,
2015-08-29 02:42:00,67.3,64.6,29.82,WSW,251,0.4,2.5,91,0.00,,,0.00,0.00,Weather logger V3.0.,2015-08-29 09:42:00,
2015-08-29 02:47:00,67.3,64.6,29.82,WNW,301,2.0,2.5,91,0.00,,,0.00,0.00,Weather logger V3.0.,2015-08-29 09:47:00,
2015-08-29 02:52:00,67.3,64.6,29.82,WNW,299,3.6,4.9,91,0.00,,,0.00,0.00,Weather logger V3.0.,2015-08-29 09:52:00,
2015-08-29 02:57:00,67.3,64.6,29.83,NW,319,1.1,2.5,91,0.00,,,0.00,0.00,Weather logger V3.0.,2015-08-29 09:57:00,
2015-08-29 03:02:00,67.3,64.6,29.83,NW,319,2.5,4.9,91,0.00,,,0.00,0.00,Weather logger V3.0.,2015-08-29 10:02:00,
2015-08-29 03:07:00,67.1,64.4,29.83,NW,325,0.2,2.5,91,0.00,,,0.00,0.00,Weather logger V3.0.,2015-08-29 10:07:00,
2015-08-29 03:12:00,67.1,64.4,29.83,West,272,0.4,2.5,91,0.00,,,0.00,0.00,Weather logger V3.0.,2015-08-29 10:12:00,
2015-08-29 03:17:00,67.1,64.4,29.83,NW,308,1.1,2.5,91,0.00,,,0.00,0.00,Weather logger V3.0.,2015-08-29 10:17:00,
2015-08-29 03:22:00,66.9,64.2,29.83,NW,311,0.2,2.5,91,0.00,,,0.00,0.00,Weather logger V3.0.,2015-08-29 10:22:00,
2015-08-29 03:27:00,66.9,64.2,29.83,NNW,328,0.0,0.0,91,0.00,,,0.00,0.00,Weather logger V3.0.,2015-08-29 10:27:00,
2015-08-29 03:32:00,67.1,64.4,29.83,NW,326,0.0,0.0,91,0.00,,,0.00,0.00,Weather logger V3.0.,2015-08-29 10:32:00,
2015-08-29 03:37:00,67.1,64.4,29.83,NNW,338,0.0,0.0,91,0.00,,,0.00,0.00,Weather logger V3.0.,2015-08-29 10:37:00,
2015-08-29 03:42:00,67.1,64.4,29.83,North,356,0.0,0.0,91,0.00,,,0.00,0.00,Weather logger V3.0.,2015-08-29 10:42:00,
2015-08-29 03:47:00,67.1,64.4,29.83,North,2,0.0,0.0,91,0.00,,,0.00,0.00,Weather logger V3.0.,2015-08-29 10:47:00,
2015-08-29 03:52:00,66.9,64.2,29.82,NNW,337,0.0,0.0,91,0.00,,,0.00,0.00,Weather logger V3.0.,2015-08-29 10:52:00,
2015-08-29 03:58:00,66.9,64.2,29.82,NNE,19,0.0,0.0,91,0.00,,,0.00,0.00,Weather logger V3.0.,2015-08-29 10:58:00,
2015-08-29 04:03:00,66.9,64.2,29.83,North,359,0.0,0.0,91,0.00,,,0.00,0.00,Weather logger V3.0.,2015-08-29 11:03:00,
2015-08-29 04:08:00,66.7,64.0,29.82,NE,39,0.0,0.0,91,0.00,,,0.00,0.00,Weather logger V3.0.,2015-08-29 11:08:00,
2015-08-29 04:13:00,66.7,63.7,29.82,NE,40,0.0,0.0,90,0.00,,,0.00,0.00,Weather logger V3.0.,2015-08-29 11:13:00,
2015-08-29 04:18:00,66.9,63.7,29.82,NE,48,0.0,0.0,89,0.00,,,0.00,0.00,Weather logger V3.0.,2015-08-29 11:18:00,
2015-08-29 04:23:00,66.9,63.9,29.82,NE,44,0.0,0.0,90,0.00,,,0.00,0.00,Weather logger V3.0.,2015-08-29 11:23:00,
2015-08-29 04:28:00,67.1,64.0,29.82,NE,50,0.0,0.0,90,0.00,,,0.00,0.00,Weather logger V3.0.,2015-08-29 11:28:00,
2015-08-29 04:33:00,67.1,64.0,29.82,NE,40,0.0,0.0,90,0.00,,,0.00,0.00,Weather logger V3.0.,2015-08-29 11:33:00,
2015-08-29 04:38:00,67.3,64.2,29.82,NE,41,0.0,0.0,90,0.00,,,0.00,0.00,Weather logger V3.0.,2015-08-29 11:38:00,
2015-08-29 04:43:00,67.1,64.4,29.82,NE,41,0.0,0.0,91,0.00,,,0.00,0.00,Weather logger V3.0.,2015-08-29 11:43:00,
2015-08-29 04:48:00,66.9,64.2,29.82,NE,42,0.0,0.0,91,0.00,,,0.00,0.00,Weather logger V3.0.,2015-08-29 11:48:00,
2015-08-29 04:53:00,66.7,64.8,29.83,NE,42,0.0,0.0,93,0.00,,,0.00,0.00,Weather logger V3.0.,2015-08-29 11:53:00,
2015-08-29 04:58:00,66.4,64.4,29.83,NE,42,0.0,0.0,93,0.00,,,0.00,0.00,Weather logger V3.0.,2015-08-29 11:58:00,
2015-08-29 05:03:00,66.2,64.2,29.83,NE,42,0.0,0.0,93,0.00,,,0.00,0.00,Weather logger V3.0.,2015-08-29 12:03:00,
2015-08-29 05:08:00,66.0,64.0,29.83,NW,311,0.0,0.0,93,0.00,,,0.00,0.00,Weather logger V3.0.,2015-08-29 12:08:00,
2015-08-29 05:14:00,66.0,63.7,29.82,SSE,168,0.0,0.0,92,0.00,,,0.00,0.00,Weather logger V3.0.,2015-08-29 12:14:00,
2015-08-29 05:24:00,66.0,63.3,29.83,NW,324,0.0,0.0,91,0.00,,,0.00,0.00,Weather logger V3.0.,2015-08-29 12:24:00,
2015-08-29 05:29:00,66.2,63.5,29.84,WNW,284,0.0,0.0,91,0.00,,,0.00,0.00,Weather logger V3.0.,2015-08-29 12:29:00,
2015-08-29 05:34:00,66.6,63.9,29.83,NE,39,0.0,0.0,91,0.00,,,0.00,0.00,Weather logger V3.0.,2015-08-29 12:34:00,
2015-08-29 05:39:00,66.7,64.0,29.84,NE,47,0.0,0.0,91,0.00,,,0.00,0.00,Weather logger V3.0.,2015-08-29 12:39:00,
2015-08-29 05:44:00,66.9,64.2,29.83,NE,40,0.0,0.0,91,0.00,,,0.00,0.00,Weather logger V3.0.,2015-08-29 12:44:00,
2015-08-29 05:49:00,66.9,63.9,29.84,NE,48,0.0,0.0,90,0.00,,,0.00,0.00,Weather logger V3.0.,2015-08-29 12:49:00,
2015-08-29 05:54:00,66.9,64.2,29.84,NE,45,0.0,0.0,91,0.00,,,0.00,0.00,Weather logger V3.0.,2015-08-29 12:54:00,
2015-08-29 05:59:00,66.9,63.9,29.84,NE,54,0.0,0.0,90,0.00,,,0.00,0.00,Weather logger V3.0.,2015-08-29 12:59:00,
2015-08-29 06:04:00,67.1,64.0,29.83,ENE,57,0.0,0.0,90,0.00,,,0.00,0.00,Weather logger V3.0.,2015-08-29 13:04:00,
2015-08-29 06:09:00,67.1,63.9,29.83,NE,45,0.0,0.0,89,0.00,,,0.00,0.00,Weather logger V3.0.,2015-08-29 13:09:00,
2015-08-29 06:14:00,67.3,64.0,29.84,East,88,0.0,0.0,89,0.00,,,0.00,0.00,Weather logger V3.0.,2015-08-29 13:14:00,
2015-08-29 06:19:00,67.3,63.7,29.84,ESE,119,0.0,0.0,88,0.00,,,0.00,0.00,Weather logger V3.0.,2015-08-29 13:19:00,
2015-08-29 06:24:00,67.5,63.9,29.84,ESE,116,0.0,0.0,88,0.00,,,0.00,0.00,Weather logger V3.0.,2015-08-29 13:24:00,
2015-08-29 06:30:00,67.5,63.9,29.84,ESE,117,0.0,0.0,88,0.00,,,0.00,0.06,Weather logger V3.0.,2015-08-29 13:30:00,
2015-08-29 06:35:00,67.6,64.0,29.84,ESE,117,0.0,0.0,88,0.00,,,0.00,0.54,Weather logger V3.0.,2015-08-29 13:35:00,
2015-08-29 06:40:00,67.6,63.7,29.84,ESE,120,0.0,0.0,87,0.00,,,0.00,1.56,Weather logger V3.0.,2015-08-29 13:40:00,
2015-08-29 06:45:00,67.6,63.7,29.84,SSE,155,0.0,0.0,87,0.00,,,0.00,4.09,Weather logger V3.0.,2015-08-29 13:45:00,
2015-08-29 06:50:00,67.8,63.5,29.85,SSE,154,0.0,0.0,86,0.00,,,0.00,6.66,Weather logger V3.0.,2015-08-29 13:50:00,
2015-08-29 06:55:00,67.8,63.9,29.84,NE,52,0.0,0.0,87,0.00,,,0.00,12.29,Weather logger V3.0.,2015-08-29 13:55:00,
2015-08-29 07:00:00,68.0,63.7,29.84,NE,42,0.0,0.0,86,0.00,,,0.00,14.44,Weather logger V3.0.,2015-08-29 14:00:00,
2015-08-29 07:05:00,68.2,63.9,29.85,NNE,33,0.0,0.0,86,0.00,,,0.00,18.77,Weather logger V3.0.,2015-08-29 14:05:00,
2015-08-29 07:10:00,68.4,63.7,29.85,NE,47,0.0,0.0,85,0.00,,,0.00,22.28,Weather logger V3.0.,2015-08-29 14:10:00,
2015-08-29 07:15:00,68.5,63.9,29.85,NE,39,0.0,0.0,85,0.00,,,0.00,35.04,Weather logger V3.0.,2015-08-29 14:15:00,
2015-08-29 07:20:00,68.7,64.4,29.85,NE,48,0.0,0.0,86,0.00,,,0.00,37.45,Weather logger V3.0.,2015-08-29 14:20:00,
2015-08-29 07:25:00,68.9,64.6,29.86,NE,47,1.1,2.5,86,0.00,,,0.00,39.18,Weather logger V3.0.,2015-08-29 14:25:00,
2015-08-29 07:30:00,68.9,64.6,29.86,East,89,0.0,0.0,86,0.00,,,0.00,45.11,Weather logger V3.0.,2015-08-29 14:30:00,
2015-08-29 07:35:00,69.1,64.8,29.86,ENE,73,0.0,0.0,86,0.00,,,0.00,43.13,Weather logger V3.0.,2015-08-29 14:35:00,
2015-08-29 07:40:00,69.1,64.8,29.86,NE,56,0.0,0.0,86,0.00,,,0.00,40.39,Weather logger V3.0.,2015-08-29 14:40:00,
2015-08-29 07:46:00,69.1,65.1,29.86,NE,37,0.0,0.0,87,0.00,,,0.00,31.38,Weather logger V3.0.,2015-08-29 14:46:00,
2015-08-29 07:51:00,69.3,64.9,29.86,ENE,76,0.0,0.0,86,0.00,,,0.00,35.19,Weather logger V3.0.,2015-08-29 14:51:00,
2015-08-29 07:56:00,69.3,64.6,29.86,NE,52,0.0,0.0,85,0.00,,,0.00,38.85,Weather logger V3.0.,2015-08-29 14:56:00,
2015-08-29 08:01:00,69.3,64.6,29.87,SSW,200,1.8,2.5,85,0.00,,,0.00,39.81,Weather logger V3.0.,2015-08-29 15:01:00,
2015-08-29 08:06:00,69.4,64.4,29.87,NE,47,0.0,0.0,84,0.00,,,0.00,43.42,Weather logger V3.0.,2015-08-29 15:06:00,
2015-08-29 08:11:00,69.4,64.0,29.87,East,86,0.2,2.5,83,0.00,,,0.00,49.82,Weather logger V3.0.,2015-08-29 15:11:00,
2015-08-29 08:16:00,69.4,64.0,29.87,ENE,59,0.0,0.0,83,0.00,,,0.00,49.49,Weather logger V3.0.,2015-08-29 15:16:00,
2015-08-29 08:21:00,69.6,64.2,29.87,ENE,77,0.0,0.0,83,0.00,,,0.00,59.98,Weather logger V3.0.,2015-08-29 15:21:00,
2015-08-29 08:26:00,69.6,63.5,29.87,South,188,0.0,0.0,81,0.00,,,0.00,46.74,Weather logger V3.0.,2015-08-29 15:26:00,
2015-08-29 08:31:00,69.8,63.7,29.87,SSE,151,0.0,0.0,81,0.00,,,0.00,61.86,Weather logger V3.0.,2015-08-29 15:31:00,
2015-08-29 08:36:00,69.8,63.7,29.87,SE,142,0.0,0.0,81,0.00,,,0.00,88.20,Weather logger V3.0.,2015-08-29 15:36:00,
2015-08-29 08:41:00,70.0,63.9,29.87,NE,44,0.2,2.5,81,0.00,,,0.00,118.31,Weather logger V3.0.,2015-08-29 15:41:00,
2015-08-29 08:46:00,70.2,63.7,29.87,ENE,61,0.0,0.0,80,0.00,,,0.00,169.36,Weather logger V3.0.,2015-08-29 15:46:00,
2015-08-29 08:51:00,70.3,63.5,29.87,ENE,77,0.0,0.0,79,0.00,,,0.00,130.18,Weather logger V3.0.,2015-08-29 15:51:00,
2015-08-29 08:56:00,70.5,63.0,29.87,ENE,74,0.0,0.0,77,0.00,,,0.00,140.99,Weather logger V3.0.,2015-08-29 15:56:00,
2015-08-29 09:02:00,70.7,63.1,29.87,NE,42,0.0,0.0,77,0.00,,,0.00,155.05,Weather logger V3.0.,2015-08-29 16:02:00,
2015-08-29 09:07:00,70.9,63.3,29.87,NE,47,0.0,0.0,77,0.00,,,0.00,153.97,Weather logger V3.0.,2015-08-29 16:07:00,
2015-08-29 09:12:00,71.1,63.1,29.87,NNE,16,0.0,0.0,76,0.00,,,0.00,161.75,Weather logger V3.0.,2015-08-29 16:12:00,
2015-08-29 09:17:00,71.2,62.6,29.88,SSW,201,2.0,2.5,74,0.00,,,0.00,199.05,Weather logger V3.0.,2015-08-29 16:17:00,
2015-08-29 09:22:00,71.2,62.6,29.87,NE,56,0.0,0.0,74,0.00,,,0.00,192.83,Weather logger V3.0.,2015-08-29 16:22:00,
2015-08-29 09:27:00,71.4,62.4,29.87,SSW,195,0.9,2.5,73,0.00,,,0.00,210.54,Weather logger V3.0.,2015-08-29 16:27:00,
2015-08-29 09:32:00,71.6,62.6,29.87,SSE,153,0.2,2.5,73,0.00,,,0.00,218.71,Weather logger V3.0.,2015-08-29 16:32:00,
2015-08-29 09:37:00,72.0,62.4,29.87,SSW,203,0.9,2.5,72,0.00,,,0.00,221.10,Weather logger V3.0.,2015-08-29 16:37:00,
2015-08-29 09:42:00,72.3,63.1,29.87,SW,227,1.1,2.5,73,0.00,,,0.00,255.76,Weather logger V3.0.,2015-08-29 16:42:00,
2015-08-29 09:47:00,72.7,63.5,29.87,West,267,0.0,0.0,73,0.00,,,0.00,288.82,Weather logger V3.0.,2015-08-29 16:47:00,
2015-08-29 09:52:00,73.0,64.8,29.88,WNW,296,0.0,0.0,75,0.00,,,0.00,319.52,Weather logger V3.0.,2015-08-29 16:52:00,
2015-08-29 09:57:00,73.6,64.4,29.88,WNW,289,0.2,2.5,73,0.00,,,0.00,394.46,Weather logger V3.0.,2015-08-29 16:57:00,
2015-08-29 10:02:00,74.1,63.7,29.88,South,180,2.0,2.5,70,0.00,,,0.00,414.29,Weather logger V3.0.,2015-08-29 17:02:00,
2015-08-29 10:07:00,74.7,63.0,29.88,East,84,0.0,0.0,67,0.00,,,0.00,303.23,Weather logger V3.0.,2015-08-29 17:07:00,
2015-08-29 10:12:00,75.0,64.2,29.88,SW,235,0.0,0.0,69,0.00,,,0.00,307.43,Weather logger V3.0.,2015-08-29 17:12:00,
2015-08-29 10:18:00,75.2,66.4,29.88,WNW,285,0.4,2.5,74,0.00,,,0.00,341.43,Weather logger V3.0.,2015-08-29 17:18:00,
2015-08-29 10:23:00,75.2,66.0,29.88,WNW,297,4.0,7.4,73,0.00,,,0.00,399.50,Weather logger V3.0.,2015-08-29 17:23:00,
2015-08-29 10:28:00,75.2,65.7,29.88,WNW,293,2.0,2.5,72,0.00,,,0.00,605.92,Weather logger V3.0.,2015-08-29 17:28:00,
2015-08-29 10:33:00,75.2,65.1,29.88,WNW,295,2.7,4.9,71,0.00,,,0.00,648.53,Weather logger V3.0.,2015-08-29 17:33:00,
2015-08-29 10:38:00,75.2,64.8,29.88,WNW,294,0.4,2.5,70,0.00,,,0.00,454.26,Weather logger V3.0.,2015-08-29 17:38:00,
2015-08-29 10:43:00,75.0,65.5,29.88,NW,310,2.0,4.9,72,0.00,,,0.00,294.97,Weather logger V3.0.,2015-08-29 17:43:00,
2015-08-29 10:48:00,75.0,64.9,29.88,WNW,298,0.4,2.5,71,0.00,,,0.00,191.17,Weather logger V3.0.,2015-08-29 17:48:00,
2015-08-29 10:53:00,75.2,66.0,29.89,WSW,241,2.9,4.9,73,0.00,,,0.00,182.69,Weather logger V3.0.,2015-08-29 17:53:00,
2015-08-29 10:58:00,75.0,66.2,29.89,WNW,283,1.3,2.5,74,0.00,,,0.00,277.12,Weather logger V3.0.,2015-08-29 17:58:00,
2015-08-29 11:03:00,74.8,66.0,29.89,WNW,292,2.7,4.9,74,0.00,,,0.00,346.33,Weather logger V3.0.,2015-08-29 18:03:00,
2015-08-29 11:08:00,74.7,65.5,29.88,SSW,198,2.0,2.5,73,0.00,,,0.00,475.52,Weather logger V3.0.,2015-08-29 18:08:00,
2015-08-29 11:13:00,74.8,64.9,29.89,WSW,244,2.0,2.5,71,0.00,,,0.00,471.38,Weather logger V3.0.,2015-08-29 18:13:00,
2015-08-29 11:18:00,75.0,65.5,29.89,SSW,204,2.5,4.9,72,0.00,,,0.00,426.59,Weather logger V3.0.,2015-08-29 18:18:00,
2015-08-29 11:23:00,75.2,65.1,29.89,SW,232,2.7,4.9,71,0.00,,,0.00,345.60,Weather logger V3.0.,2015-08-29 18:23:00,
2015-08-29 11:28:00,75.2,66.4,29.89,WSW,256,2.5,2.5,74,0.00,,,0.00,299.41,Weather logger V3.0.,2015-08-29 18:28:00,
2015-08-29 11:34:00,75.4,66.2,29.89,NNE,22,0.0,0.0,73,0.00,,,0.00,338.48,Weather logger V3.0.,2015-08-29 18:34:00,
2015-08-29 11:39:00,75.4,66.6,29.89,WSW,254,4.2,4.9,74,0.00,,,0.00,443.67,Weather logger V3.0.,2015-08-29 18:39:00,
2015-08-29 11:44:00,75.2,66.4,29.89,WNW,296,4.0,4.9,74,0.00,,,0.00,417.38,Weather logger V3.0.,2015-08-29 18:44:00,
2015-08-29 11:49:00,75.0,66.2,29.89,WNW,291,2.5,2.5,74,0.00,,,0.00,458.99,Weather logger V3.0.,2015-08-29 18:49:00,
2015-08-29 11:54:00,74.8,65.7,29.89,WSW,247,2.5,2.5,73,0.00,,,0.00,472.18,Weather logger V3.0.,2015-08-29 18:54:00,
2015-08-29 11:59:00,75.0,65.5,29.89,SW,227,2.5,4.9,72,0.00,,,0.00,429.57,Weather logger V3.0.,2015-08-29 18:59:00,
2015-08-29 12:04:00,75.0,65.5,29.89,SW,231,4.2,4.9,72,0.00,,,0.00,450.62,Weather logger V3.0.,2015-08-29 19:04:00,
2015-08-29 12:09:00,75.2,64.4,29.89,WSW,256,5.6,7.4,69,0.00,,,0.00,466.90,Weather logger V3.0.,2015-08-29 19:09:00,
2015-08-29 12:14:00,75.2,65.1,29.89,WSW,247,7.2,9.8,71,0.00,,,0.00,423.56,Weather logger V3.0.,2015-08-29 19:14:00,
2015-08-29 12:19:00,75.4,64.9,29.89,NW,312,5.1,7.4,70,0.00,,,0.00,371.68,Weather logger V3.0.,2015-08-29 19:19:00,
2015-08-29 12:24:00,75.6,65.5,29.89,West,261,5.6,7.4,71,0.00,,,0.00,478.12,Weather logger V3.0.,2015-08-29 19:24:00,
2015-08-29 12:29:00,75.7,65.3,29.89,West,267,6.5,7.4,70,0.00,,,0.00,705.14,Weather logger V3.0.,2015-08-29 19:29:00,
2015-08-29 12:34:00,75.9,65.5,29.89,NNW,332,3.4,4.9,70,0.00,,,0.00,562.09,Weather logger V3.0.,2015-08-29 19:34:00,
2015-08-29 12:39:00,76.1,65.3,29.89,WNW,301,4.5,7.4,69,0.00,,,0.00,510.04,Weather logger V3.0.,2015-08-29 19:39:00,
2015-08-29 12:44:00,76.1,67.3,29.89,WSW,250,4.5,7.4,74,0.00,,,0.00,511.25,Weather logger V3.0.,2015-08-29 19:44:00,
2015-08-29 12:50:00,75.9,67.1,29.89,NW,306,2.7,4.9,74,0.00,,,0.00,402.80,Weather logger V3.0.,2015-08-29 19:50:00,
2015-08-29 12:55:00,75.7,67.3,29.89,West,272,7.6,9.8,75,0.00,,,0.00,426.72,Weather logger V3.0.,2015-08-29 19:55:00,
2015-08-29 13:00:00,75.6,66.0,29.89,SW,234,2.9,4.9,72,0.00,,,0.00,700.55,Weather logger V3.0.,2015-08-29 20:00:00,
2015-08-29 13:05:00,75.4,65.3,29.89,NW,309,5.6,7.4,71,0.00,,,0.00,426.00,Weather logger V3.0.,2015-08-29 20:05:00,
2015-08-29 13:10:00,75.2,65.7,29.89,WNW,293,3.4,4.9,72,0.00,,,0.00,892.27,Weather logger V3.0.,2015-08-29 20:10:00,
2015-08-29 13:15:00,75.4,64.2,29.89,NW,305,3.4,4.9,68,0.00,,,0.00,921.72,Weather logger V3.0.,2015-08-29 20:15:00,
2015-08-29 13:20:00,75.7,64.4,29.89,WSW,240,4.5,7.4,68,0.00,,,0.00,892.37,Weather logger V3.0.,2015-08-29 20:20:00,
2015-08-29 13:25:00,75.9,65.5,29.89,WNW,290,5.6,7.4,70,0.00,,,0.00,654.99,Weather logger V3.0.,2015-08-29 20:25:00,
2015-08-29 13:30:00,75.9,65.1,29.89,West,270,6.7,9.8,69,0.00,,,0.00,821.25,Weather logger V3.0.,2015-08-29 20:30:00,
2015-08-29 13:35:00,76.1,65.3,29.88,WNW,289,7.4,9.8,69,0.00,,,0.00,626.65,Weather logger V3.0.,2015-08-29 20:35:00,
2015-08-29 13:40:00,76.3,63.7,29.89,WSW,250,4.9,7.4,65,0.00,,,0.00,748.75,Weather logger V3.0.,2015-08-29 20:40:00,
2015-08-29 13:45:00,76.3,64.2,29.88,WNW,296,4.9,7.4,66,0.00,,,0.00,897.03,Weather logger V3.0.,2015-08-29 20:45:00,
2015-08-29 13:50:00,76.5,63.9,29.89,WSW,249,5.8,7.4,65,0.00,,,0.00,475.45,Weather logger V3.0.,2015-08-29 20:50:00,
2015-08-29 13:55:00,76.6,64.4,29.89,NNW,331,3.6,4.9,66,0.00,,,0.00,911.72,Weather logger V3.0.,2015-08-29 20:55:00,
2015-08-29 14:00:00,76.6,63.1,29.89,NW,314,7.4,9.8,63,0.00,,,0.00,903.97,Weather logger V3.0.,2015-08-29 21:00:00,
2015-08-29 14:06:00,76.8,63.9,29.89,SSW,192,1.8,2.5,64,0.00,,,0.00,825.52,Weather logger V3.0.,2015-08-29 21:06:00,
2015-08-29 14:11:00,77.0,62.6,29.88,WNW,296,4.9,7.4,61,0.00,,,0.00,868.90,Weather logger V3.0.,2015-08-29 21:11:00,
2015-08-29 14:16:00,76.8,63.3,29.88,NW,308,5.1,7.4,63,0.00,,,0.00,913.28,Weather logger V3.0.,2015-08-29 21:16:00,
2015-08-29 14:21:00,76.8,61.9,29.88,NW,326,6.5,7.4,60,0.00,,,0.00,760.67,Weather logger V3.0.,2015-08-29 21:21:00,
2015-08-29 14:26:00,77.2,60.3,29.89,SSW,203,5.6,7.4,56,0.00,,,0.00,886.23,Weather logger V3.0.,2015-08-29 21:26:00,
2015-08-29 14:31:00,77.4,59.0,29.88,WSW,247,1.8,2.5,53,0.00,,,0.00,794.65,Weather logger V3.0.,2015-08-29 21:31:00,
2015-08-29 14:36:00,77.7,57.7,29.89,WNW,303,4.0,4.9,50,0.00,,,0.00,670.55,Weather logger V3.0.,2015-08-29 21:36:00,
2015-08-29 14:41:00,77.9,59.4,29.88,NW,306,5.8,7.4,53,0.00,,,0.00,833.02,Weather logger V3.0.,2015-08-29 21:41:00,
2015-08-29 14:46:00,78.1,57.9,29.88,NNW,334,4.9,7.4,50,0.00,,,0.00,613.66,Weather logger V3.0.,2015-08-29 21:46:00,
2015-08-29 14:51:00,78.3,59.2,29.88,West,266,9.8,12.3,52,0.00,,,0.00,745.21,Weather logger V3.0.,2015-08-29 21:51:00,
2015-08-29 14:56:00,78.1,59.0,29.88,West,265,5.6,7.4,52,0.00,,,0.00,504.97,Weather logger V3.0.,2015-08-29 21:56:00,
2015-08-29 15:01:00,77.9,59.0,29.88,WSW,257,8.1,9.8,52,0.00,,,0.00,670.24,Weather logger V3.0.,2015-08-29 22:01:00,
2015-08-29 15:06:00,77.5,58.6,29.88,West,272,8.3,12.3,52,0.00,,,0.00,729.79,Weather logger V3.0.,2015-08-29 22:06:00,
2015-08-29 15:11:00,77.5,58.1,29.88,SW,226,3.6,7.4,51,0.00,,,0.00,534.24,Weather logger V3.0.,2015-08-29 22:11:00,
2015-08-29 15:16:00,77.4,57.4,29.88,West,266,8.1,9.8,50,0.00,,,0.00,707.08,Weather logger V3.0.,2015-08-29 22:16:00,
2015-08-29 15:22:00,77.4,59.5,29.88,WNW,283,4.5,4.9,54,0.00,,,0.00,836.70,Weather logger V3.0.,2015-08-29 22:22:00,
2015-08-29 15:27:00,77.4,59.5,29.88,WSW,248,8.1,9.8,54,0.00,,,0.00,864.94,Weather logger V3.0.,2015-08-29 22:27:00,
2015-08-29 15:32:00,77.4,59.9,29.88,WNW,285,8.7,9.8,55,0.00,,,0.00,434.68,Weather logger V3.0.,2015-08-29 22:32:00,
2015-08-29 15:37:00,77.4,59.9,29.88,WSW,256,6.5,7.4,55,0.00,,,0.00,641.52,Weather logger V3.0.,2015-08-29 22:37:00,
2015-08-29 15:42:00,77.2,58.8,29.87,WNW,302,6.0,9.8,53,0.00,,,0.00,847.26,Weather logger V3.0.,2015-08-29 22:42:00,
2015-08-29 15:47:00,77.2,58.8,29.87,WSW,250,8.9,9.8,53,0.00,,,0.00,834.31,Weather logger V3.0.,2015-08-29 22:47:00,
2015-08-29 15:52:00,77.2,57.7,29.87,WNW,290,5.8,9.8,51,0.00,,,0.00,555.43,Weather logger V3.0.,2015-08-29 22:52:00,
2015-08-29 15:57:00,77.2,57.2,29.87,NNW,330,6.5,7.4,50,0.00,,,0.00,538.24,Weather logger V3.0.,2015-08-29 22:57:00,
2015-08-29 16:02:00,77.2,56.1,29.87,WNW,283,11.2,12.3,48,0.00,,,0.00,675.24,Weather logger V3.0.,2015-08-29 23:02:00,
2015-08-29 16:07:00,77.2,57.7,29.86,SSW,198,2.9,4.9,51,0.00,,,0.00,712.81,Weather logger V3.0.,2015-08-29 23:07:00,
2015-08-29 16:12:00,77.2,54.9,29.87,West,278,10.7,15.0,46,0.00,,,0.00,754.66,Weather logger V3.0.,2015-08-29 23:12:00,
2015-08-29 16:17:00,77.4,54.5,29.87,WSW,238,5.8,9.8,45,0.00,,,0.00,726.88,Weather logger V3.0.,2015-08-29 23:17:00,
2015-08-29 16:22:00,77.5,57.6,29.87,West,263,10.5,12.3,50,0.00,,,0.00,650.34,Weather logger V3.0.,2015-08-29 23:22:00,
2015-08-29 16:27:00,77.4,59.0,29.87,SW,236,4.5,7.4,53,0.00,,,0.00,555.32,Weather logger V3.0.,2015-08-29 23:27:00,
2015-08-29 16:32:00,77.4,57.4,29.87,West,280,7.6,12.3,50,0.00,,,0.00,600.71,Weather logger V3.0.,2015-08-29 23:32:00,
2015-08-29 16:38:00,77.5,58.1,29.86,SSW,202,3.6,4.9,51,0.00,,,0.00,710.31,Weather logger V3.0.,2015-08-29 23:38:00,
2015-08-29 16:43:00,77.4,59.0,29.86,West,267,4.5,4.9,53,0.00,,,0.00,451.31,Weather logger V3.0.,2015-08-29 23:43:00,
2015-08-29 16:48:00,77.2,58.8,29.86,NW,309,5.6,7.4,53,0.00,,,0.00,672.15,Weather logger V3.0.,2015-08-29 23:48:00,
2015-08-29 16:53:00,77.0,60.1,29.86,WNW,292,8.9,12.3,56,0.00,,,0.00,659.64,Weather logger V3.0.,2015-08-29 23:53:00,
2015-08-29 16:58:00,77.0,58.6,29.86,WNW,292,7.4,9.8,53,0.00,,,0.00,643.49,Weather logger V3.0.,2015-08-29 23:58:00,
2015-08-29 17:03:00,77.0,59.2,29.86,West,270,7.4,12.3,54,0.00,,,0.00,634.57,Weather logger V3.0.,2015-08-30 00:03:00,
2015-08-29 17:08:00,77.0,57.6,29.87,East,81,2.0,4.9,51,0.00,,,0.00,615.61,Weather logger V3.0.,2015-08-30 00:08:00,
2015-08-29 17:13:00,76.8,56.3,29.87,WNW,297,9.2,12.3,49,0.00,,,0.00,595.02,Weather logger V3.0.,2015-08-30 00:13:00,
2015-08-29 17:18:00,76.8,54.5,29.86,WNW,283,2.0,2.5,46,0.00,,,0.00,583.87,Weather logger V3.0.,2015-08-30 00:18:00,
2015-08-29 17:23:00,77.0,56.5,29.86,West,277,5.1,7.4,49,0.00,,,0.00,572.93,Weather logger V3.0.,2015-08-30 00:23:00,
2015-08-29 17:28:00,77.0,52.9,29.87,West,269,9.2,12.3,43,0.00,,,0.00,561.95,Weather logger V3.0.,2015-08-30 00:28:00,
2015-08-29 17:33:00,77.0,52.2,29.86,WNW,301,4.2,4.9,42,0.00,,,0.00,551.36,Weather logger V3.0.,2015-08-30 00:33:00,
2015-08-29 17:38:00,77.0,54.1,29.86,West,269,5.8,7.4,45,0.00,,,0.00,541.15,Weather logger V3.0.,2015-08-30 00:38:00,
2015-08-29 17:43:00,77.0,54.1,29.86,West,262,7.6,9.8,45,0.00,,,0.00,530.35,Weather logger V3.0.,2015-08-30 00:43:00,